sensor_id;sensor_type;location;lat;lon;timestamp;pressure;altitude;pressure_sealevel;temperature;humidity
7930;BME280;4010;42.698;23.124;2022-07-10T00:00:06;29414.41;;;-140.64;100.00
7930;BME280;4010;42.698;23.124;2022-07-10T00:02:34;30441.25;;;-140.64;100.00
7930;BME280;4010;42.698;23.124;2022-07-10T00:05:00;30184.53;;;-140.64;100.00
7930;BME280;4010;42.698;23.124;2022-07-10T00:07:27;29157.75;;;-140.64;100.00
7930;BME280;4010;42.698;23.124;2022-07-10T00:09:54;28901.09;;;-140.64;100.00
7930;BME280;4010;42.698;23.124;2022-07-10T00:12:20;28131.28;;;-140.64;100.00
7930;BME280;4010;42.698;23.124;2022-07-10T00:14:48;28387.88;;;-140.64;100.00
7930;BME280;4010;42.698;23.124;2022-07-10T00:17:15;28387.88;;;-140.64;100.00
7930;BME280;4010;42.698;23.124;2022-07-10T00:19:42;28131.28;;;-140.64;100.00
7930;BME280;4010;42.698;23.124;2022-07-10T00:22:09;27874.72;;;-140.64;100.00
7930;BME280;4010;42.698;23.124;2022-07-10T00:24:35;26592.19;;;-140.64;100.00
7930;BME280;4010;42.698;23.124;2022-07-10T00:27:03;26335.75;;;-140.64;100.00
7930;BME280;4010;42.698;23.124;2022-07-10T00:29:29;27361.66;;;-140.64;100.00
7930;BME280;4010;42.698;23.124;2022-07-10T00:31:58;27105.16;;;-140.64;100.00
7930;BME280;4010;42.698;23.124;2022-07-10T00:34:24;27618.19;;;-140.64;100.00
7930;BME280;4010;42.698;23.124;2022-07-10T00:36:51;27618.19;;;-140.64;100.00
7930;BME280;4010;42.698;23.124;2022-07-10T00:39:18;27105.16;;;-140.64;100.00
7930;BME280;4010;42.698;23.124;2022-07-10T00:41:44;26335.75;;;-140.64;100.00
7930;BME280;4010;42.698;23.124;2022-07-10T00:44:11;26335.75;;;-140.64;100.00
7930;BME280;4010;42.698;23.124;2022-07-10T00:46:38;27361.66;;;-140.64;100.00
7930;BME280;4010;42.698;23.124;2022-07-10T00:49:07;27361.66;;;-140.64;100.00
7930;BME280;4010;42.698;23.124;2022-07-10T00:51:34;26335.75;;;-140.64;100.00
7930;BME280;4010;42.698;23.124;2022-07-10T00:54:02;27618.19;;;-140.64;100.00
7930;BME280;4010;42.698;23.124;2022-07-10T00:56:29;26848.66;;;-140.64;100.00
7930;BME280;4010;42.698;23.124;2022-07-10T00:58:57;26592.19;;;-140.64;100.00
7930;BME280;4010;42.698;23.124;2022-07-10T01:01:23;26848.66;;;-140.64;100.00
7930;BME280;4010;42.698;23.124;2022-07-10T01:03:50;27105.16;;;-140.64;100.00
7930;BME280;4010;42.698;23.124;2022-07-10T01:06:18;26335.75;;;-140.64;100.00
7930;BME280;4010;42.698;23.124;2022-07-10T01:08:45;25822.91;;;-140.64;100.00
7930;BME280;4010;42.698;23.124;2022-07-10T01:11:14;25566.53;;;-140.64;100.00
7930;BME280;4010;42.698;23.124;2022-07-10T01:13:41;25822.91;;;-140.64;100.00
7930;BME280;4010;42.698;23.124;2022-07-10T01:16:08;26335.75;;;-140.64;100.00
7930;BME280;4010;42.698;23.124;2022-07-10T01:18:35;26079.31;;;-140.64;100.00
7930;BME280;4010;42.698;23.124;2022-07-10T01:21:03;25822.91;;;-140.64;100.00
7930;BME280;4010;42.698;23.124;2022-07-10T01:23:30;24797.47;;;-140.64;100.00
7930;BME280;4010;42.698;23.124;2022-07-10T01:25:57;25053.81;;;-140.64;100.00
7930;BME280;4010;42.698;23.124;2022-07-10T01:28:25;25310.16;;;-140.64;100.00
7930;BME280;4010;42.698;23.124;2022-07-10T01:30:54;24541.16;;;-140.64;100.00
7930;BME280;4010;42.698;23.124;2022-07-10T01:33:21;24541.16;;;-140.64;100.00
7930;BME280;4010;42.698;23.124;2022-07-10T01:35:48;25053.81;;;-140.64;100.00
7930;BME280;4010;42.698;23.124;2022-07-10T01:38:16;24284.88;;;-140.64;100.00
7930;BME280;4010;42.698;23.124;2022-07-10T01:40:42;24797.47;;;-140.64;100.00
7930;BME280;4010;42.698;23.124;2022-07-10T01:43:09;25310.16;;;-140.64;100.00
7930;BME280;4010;42.698;23.124;2022-07-10T01:45:36;25566.53;;;-140.64;100.00
7930;BME280;4010;42.698;23.124;2022-07-10T01:48:03;24797.47;;;-140.64;100.00
7930;BME280;4010;42.698;23.124;2022-07-10T01:50:29;24028.63;;;-140.64;100.00
7930;BME280;4010;42.698;23.124;2022-07-10T01:52:56;24028.63;;;-140.64;100.00
7930;BME280;4010;42.698;23.124;2022-07-10T01:55:24;24028.63;;;-140.64;100.00
7930;BME280;4010;42.698;23.124;2022-07-10T01:57:51;24541.16;;;-140.64;100.00
7930;BME280;4010;42.698;23.124;2022-07-10T02:00:18;23772.38;;;-140.64;100.00
7930;BME280;4010;42.698;23.124;2022-07-10T02:02:45;24028.63;;;-140.64;100.00
7930;BME280;4010;42.698;23.124;2022-07-10T02:05:32;23772.38;;;-140.64;100.00
7930;BME280;4010;42.698;23.124;2022-07-10T02:07:57;23259.94;;;-140.64;100.00
7930;BME280;4010;42.698;23.124;2022-07-10T02:10:26;23259.94;;;-140.64;100.00
7930;BME280;4010;42.698;23.124;2022-07-10T02:12:53;23259.94;;;-140.64;100.00
7930;BME280;4010;42.698;23.124;2022-07-10T02:15:19;22747.56;;;-140.64;100.00
7930;BME280;4010;42.698;23.124;2022-07-10T02:17:46;23003.72;;;-140.64;100.00
7930;BME280;4010;42.698;23.124;2022-07-10T02:20:13;23003.72;;;-140.64;100.00
7930;BME280;4010;42.698;23.124;2022-07-10T02:22:39;23003.72;;;-140.64;100.00
7930;BME280;4010;42.698;23.124;2022-07-10T02:25:07;22747.56;;;-140.64;100.00
7930;BME280;4010;42.698;23.124;2022-07-10T02:27:35;22747.56;;;-140.64;100.00
7930;BME280;4010;42.698;23.124;2022-07-10T02:30:02;21723.09;;;-140.64;100.00
7930;BME280;4010;42.698;23.124;2022-07-10T02:32:29;21467.00;;;-140.64;100.00
7930;BME280;4010;42.698;23.124;2022-07-10T02:34:56;20954.91;;;-140.64;100.00
7930;BME280;4010;42.698;23.124;2022-07-10T02:37:22;20954.91;;;-140.64;100.00
7930;BME280;4010;42.698;23.124;2022-07-10T02:39:50;20186.94;;;-140.64;100.00
7930;BME280;4010;42.698;23.124;2022-07-10T02:42:17;20186.94;;;-140.64;100.00
7930;BME280;4010;42.698;23.124;2022-07-10T02:44:45;20442.91;;;-140.64;100.00
7930;BME280;4010;42.698;23.124;2022-07-10T02:47:12;19675.06;;;-140.64;100.00
7930;BME280;4010;42.698;23.124;2022-07-10T02:49:38;20186.94;;;-140.64;100.00
7930;BME280;4010;42.698;23.124;2022-07-10T02:52:06;19931.00;;;-140.64;100.00
7930;BME280;4010;42.698;23.124;2022-07-10T02:54:32;19675.06;;;-140.64;100.00
7930;BME280;4010;42.698;23.124;2022-07-10T02:56:59;18907.38;;;-140.64;100.00
7930;BME280;4010;42.698;23.124;2022-07-10T02:59:26;18651.53;;;-140.64;100.00
7930;BME280;4010;42.698;23.124;2022-07-10T03:01:54;18907.38;;;-140.64;100.00
7930;BME280;4010;42.698;23.124;2022-07-10T03:04:20;19419.16;;;-140.64;100.00
7930;BME280;4010;42.698;23.124;2022-07-10T03:06:47;19419.16;;;-140.64;100.00
7930;BME280;4010;42.698;23.124;2022-07-10T03:09:14;18139.88;;;-140.64;100.00
7930;BME280;4010;42.698;23.124;2022-07-10T03:11:40;17884.06;;;-140.64;100.00
7930;BME280;4010;42.698;23.124;2022-07-10T03:14:07;17884.06;;;-140.64;100.00
7930;BME280;4010;42.698;23.124;2022-07-10T03:16:35;17628.28;;;-140.64;100.00
7930;BME280;4010;42.698;23.124;2022-07-10T03:19:03;17628.28;;;-140.64;100.00
7930;BME280;4010;42.698;23.124;2022-07-10T03:21:30;16861.09;;;-140.64;100.00
7930;BME280;4010;42.698;23.124;2022-07-10T03:23:57;15071.63;;;-140.64;100.00
7930;BME280;4010;42.698;23.124;2022-07-10T03:26:23;14560.53;;;-140.64;100.00
7930;BME280;4010;42.698;23.124;2022-07-10T03:28:50;13283.13;;;-140.64;100.00
7930;BME280;4010;42.698;23.124;2022-07-10T03:31:17;10474.59;;;-140.64;100.00
7930;BME280;4010;42.698;23.124;2022-07-10T03:33:44;9709.03;;;-140.64;100.00
7930;BME280;4010;42.698;23.124;2022-07-10T03:36:12;8688.59;;;-140.64;100.00
7930;BME280;4010;42.698;23.124;2022-07-10T03:38:39;5883.94;;;-140.64;100.00
7930;BME280;4010;42.698;23.124;2022-07-10T03:41:06;5374.28;;;-140.64;100.00
7930;BME280;4010;42.698;23.124;2022-07-10T03:43:32;5119.47;;;-140.64;100.00
7930;BME280;4010;42.698;23.124;2022-07-10T03:45:59;8178.47;;;-140.64;100.00
7930;BME280;4010;42.698;23.124;2022-07-10T03:48:26;49495.03;;;-140.64;100.00
7930;BME280;4010;42.698;23.124;2022-07-10T03:50:53;90016.50;;;-140.64;100.00
7930;BME280;4010;42.698;23.124;2022-07-10T03:53:21;118349.16;;;-140.64;100.00
7930;BME280;4010;42.698;23.124;2022-07-10T03:55:48;118349.16;;;-140.64;100.00
7930;BME280;4010;42.698;23.124;2022-07-10T03:58:14;118349.16;;;-140.64;100.00
7930;BME280;4010;42.698;23.124;2022-07-10T04:00:40;118349.16;;;-140.64;100.00
7930;BME280;4010;42.698;23.124;2022-07-10T04:03:07;118349.16;;;-140.64;100.00
7930;BME280;4010;42.698;23.124;2022-07-10T04:05:35;118349.16;;;-140.64;100.00
7930;BME280;4010;42.698;23.124;2022-07-10T04:08:03;118349.16;;;-140.64;100.00
7930;BME280;4010;42.698;23.124;2022-07-10T04:10:31;118349.16;;;-140.64;100.00
7930;BME280;4010;42.698;23.124;2022-07-10T04:12:58;118349.16;;;-140.64;100.00
7930;BME280;4010;42.698;23.124;2022-07-10T04:15:26;118349.16;;;-140.64;100.00
7930;BME280;4010;42.698;23.124;2022-07-10T04:17:52;118349.16;;;-140.64;100.00
7930;BME280;4010;42.698;23.124;2022-07-10T04:20:20;118349.16;;;-140.64;100.00
7930;BME280;4010;42.698;23.124;2022-07-10T04:22:47;118349.16;;;-140.64;100.00
7930;BME280;4010;42.698;23.124;2022-07-10T04:25:14;118349.16;;;-140.64;95.25
7930;BME280;4010;42.698;23.124;2022-07-10T04:27:42;118349.16;;;-140.64;94.25
7930;BME280;4010;42.698;23.124;2022-07-10T04:30:09;118349.16;;;-140.64;91.00
7930;BME280;4010;42.698;23.124;2022-07-10T04:32:36;118349.16;;;-140.64;89.85
7930;BME280;4010;42.698;23.124;2022-07-10T04:35:04;118349.16;;;-140.64;85.97
7930;BME280;4010;42.698;23.124;2022-07-10T04:37:31;118349.16;;;-140.64;81.90
7930;BME280;4010;42.698;23.124;2022-07-10T04:39:59;118349.16;;;-140.64;80.76
7930;BME280;4010;42.698;23.124;2022-07-10T04:42:26;118349.16;;;-140.64;77.34
7930;BME280;4010;42.698;23.124;2022-07-10T04:44:54;118349.16;;;-140.64;77.32
7930;BME280;4010;42.698;23.124;2022-07-10T04:47:21;118349.16;;;-140.64;80.31
7930;BME280;4010;42.698;23.124;2022-07-10T04:49:48;118349.16;;;-140.64;77.28
7930;BME280;4010;42.698;23.124;2022-07-10T04:52:14;118349.16;;;-140.64;77.05
7930;BME280;4010;42.698;23.124;2022-07-10T04:54:41;118349.16;;;-140.64;74.61
7930;BME280;4010;42.698;23.124;2022-07-10T04:57:08;118349.16;;;-140.64;74.85
7930;BME280;4010;42.698;23.124;2022-07-10T04:59:35;118349.16;;;-140.64;72.04
7930;BME280;4010;42.698;23.124;2022-07-10T05:02:03;118349.16;;;-140.64;69.65
7930;BME280;4010;42.698;23.124;2022-07-10T05:04:30;118349.16;;;-140.64;82.69
7930;BME280;4010;42.698;23.124;2022-07-10T05:06:57;118349.16;;;-140.64;69.97
7930;BME280;4010;42.698;23.124;2022-07-10T05:09:23;118349.16;;;-140.64;80.91
7930;BME280;4010;42.698;23.124;2022-07-10T05:11:51;118349.16;;;-140.64;83.18
7930;BME280;4010;42.698;23.124;2022-07-10T05:14:18;118349.16;;;-140.64;83.59
7930;BME280;4010;42.698;23.124;2022-07-10T05:16:44;118349.16;;;-140.64;89.18
7930;BME280;4010;42.698;23.124;2022-07-10T05:19:12;118349.16;;;-140.64;94.75
7930;BME280;4010;42.698;23.124;2022-07-10T05:21:39;118349.16;;;-140.64;100.00
7930;BME280;4010;42.698;23.124;2022-07-10T05:24:06;118349.16;;;-140.64;100.00
7930;BME280;4010;42.698;23.124;2022-07-10T05:26:33;118349.16;;;-140.64;100.00
7930;BME280;4010;42.698;23.124;2022-07-10T05:29:01;118349.16;;;-140.64;100.00
7930;BME280;4010;42.698;23.124;2022-07-10T05:31:28;118349.16;;;-140.64;100.00
7930;BME280;4010;42.698;23.124;2022-07-10T05:33:54;118349.16;;;-140.64;100.00
7930;BME280;4010;42.698;23.124;2022-07-10T05:36:22;118349.16;;;-140.64;100.00
7930;BME280;4010;42.698;23.124;2022-07-10T05:38:49;118349.16;;;-140.64;100.00
7930;BME280;4010;42.698;23.124;2022-07-10T05:41:16;118349.16;;;-140.64;100.00
7930;BME280;4010;42.698;23.124;2022-07-10T05:43:43;118349.16;;;-140.64;100.00
7930;BME280;4010;42.698;23.124;2022-07-10T05:46:10;118349.16;;;-140.64;100.00
7930;BME280;4010;42.698;23.124;2022-07-10T05:48:36;118349.16;;;-140.64;100.00
7930;BME280;4010;42.698;23.124;2022-07-10T05:51:04;118349.16;;;-140.64;100.00
7930;BME280;4010;42.698;23.124;2022-07-10T05:53:32;118349.16;;;-140.64;100.00
7930;BME280;4010;42.698;23.124;2022-07-10T05:56:00;118349.16;;;-140.64;100.00
7930;BME280;4010;42.698;23.124;2022-07-10T05:58:27;118349.16;;;-140.64;100.00
7930;BME280;4010;42.698;23.124;2022-07-10T06:00:54;118349.16;;;-140.64;100.00
7930;BME280;4010;42.698;23.124;2022-07-10T06:03:21;118349.16;;;-140.64;100.00
7930;BME280;4010;42.698;23.124;2022-07-10T06:05:48;118349.16;;;-140.64;100.00
7930;BME280;4010;42.698;23.124;2022-07-10T06:08:15;118349.16;;;-140.64;100.00
7930;BME280;4010;42.698;23.124;2022-07-10T06:10:43;118349.16;;;-140.64;100.00
7930;BME280;4010;42.698;23.124;2022-07-10T06:13:10;118349.16;;;-140.64;100.00
7930;BME280;4010;42.698;23.124;2022-07-10T06:15:37;118349.16;;;-140.64;100.00
7930;BME280;4010;42.698;23.124;2022-07-10T06:18:04;118349.16;;;-140.64;86.94
7930;BME280;4010;42.698;23.124;2022-07-10T06:20:31;118349.16;;;-140.64;80.50
7930;BME280;4010;42.698;23.124;2022-07-10T06:22:57;118349.16;;;-140.64;80.53
7930;BME280;4010;42.698;23.124;2022-07-10T06:25:24;118349.16;;;-140.64;77.32
7930;BME280;4010;42.698;23.124;2022-07-10T06:27:52;118349.16;;;-140.64;77.05
7930;BME280;4010;42.698;23.124;2022-07-10T06:30:19;118349.16;;;-140.64;72.25
7930;BME280;4010;42.698;23.124;2022-07-10T06:32:46;118349.16;;;-140.64;68.91
7930;BME280;4010;42.698;23.124;2022-07-10T06:35:12;118349.16;;;-140.64;70.50
7930;BME280;4010;42.698;23.124;2022-07-10T06:37:39;118349.16;;;-140.64;70.27
7930;BME280;4010;42.698;23.124;2022-07-10T06:40:07;118349.16;;;-140.64;66.88
7930;BME280;4010;42.698;23.124;2022-07-10T06:42:34;118349.16;;;-140.64;66.93
7930;BME280;4010;42.698;23.124;2022-07-10T06:45:02;118349.16;;;-140.64;66.34
7930;BME280;4010;42.698;23.124;2022-07-10T06:47:29;118349.16;;;-140.64;58.20
7930;BME280;4010;42.698;23.124;2022-07-10T06:50:13;118349.16;;;-140.64;59.69
7930;BME280;4010;42.698;23.124;2022-07-10T06:52:39;118349.16;;;-140.64;72.44
7930;BME280;4010;42.698;23.124;2022-07-10T06:55:07;118349.16;;;-140.64;69.23
7930;BME280;4010;42.698;23.124;2022-07-10T06:57:34;118349.16;;;-140.64;74.48
7930;BME280;4010;42.698;23.124;2022-07-10T07:00:02;118349.16;;;-140.64;77.56
7930;BME280;4010;42.698;23.124;2022-07-10T07:02:30;118349.16;;;-140.64;83.63
7930;BME280;4010;42.698;23.124;2022-07-10T07:04:56;118349.16;;;-140.64;79.92
7930;BME280;4010;42.698;23.124;2022-07-10T07:07:23;118349.16;;;-140.64;75.94
7930;BME280;4010;42.698;23.124;2022-07-10T07:09:50;118349.16;;;-140.64;69.12
7930;BME280;4010;42.698;23.124;2022-07-10T07:12:17;118349.16;;;-140.64;72.36
7930;BME280;4010;42.698;23.124;2022-07-10T07:14:44;118349.16;;;-140.64;71.22
7930;BME280;4010;42.698;23.124;2022-07-10T07:17:14;118349.16;;;-140.64;72.35
7930;BME280;4010;42.698;23.124;2022-07-10T07:19:47;118349.16;;;-140.64;69.04
7930;BME280;4010;42.698;23.124;2022-07-10T07:22:31;118349.16;;;-140.64;76.60
7930;BME280;4010;42.698;23.124;2022-07-10T07:25:15;118349.16;;;-140.64;64.15
7930;BME280;4010;42.698;23.124;2022-07-10T07:27:42;118349.16;;;-140.64;71.44
7930;BME280;4010;42.698;23.124;2022-07-10T07:30:11;118349.16;;;-140.64;72.39
7930;BME280;4010;42.698;23.124;2022-07-10T07:32:42;118349.16;;;-140.64;76.24
7930;BME280;4010;42.698;23.124;2022-07-10T07:35:09;118349.16;;;-140.64;79.53
7930;BME280;4010;42.698;23.124;2022-07-10T07:37:38;118349.16;;;-140.64;88.18
7930;BME280;4010;42.698;23.124;2022-07-10T07:40:06;118349.16;;;-140.64;81.51
7930;BME280;4010;42.698;23.124;2022-07-10T07:42:33;118349.16;;;-140.64;87.08
7930;BME280;4010;42.698;23.124;2022-07-10T07:45:01;118349.16;;;-140.64;88.75
7930;BME280;4010;42.698;23.124;2022-07-10T07:47:29;118349.16;;;-140.64;81.15
7930;BME280;4010;42.698;23.124;2022-07-10T07:50:01;118349.16;;;-140.64;82.28
7930;BME280;4010;42.698;23.124;2022-07-10T07:52:29;118349.16;;;-140.64;84.87
7930;BME280;4010;42.698;23.124;2022-07-10T07:54:56;118349.16;;;-140.64;86.80
7930;BME280;4010;42.698;23.124;2022-07-10T07:57:23;118349.16;;;-140.64;85.96
7930;BME280;4010;42.698;23.124;2022-07-10T07:59:50;118349.16;;;-140.64;91.44
7930;BME280;4010;42.698;23.124;2022-07-10T08:02:17;118349.16;;;-140.64;81.18
7930;BME280;4010;42.698;23.124;2022-07-10T08:04:43;118349.16;;;-140.64;78.94
7930;BME280;4010;42.698;23.124;2022-07-10T08:07:11;118349.16;;;-140.64;83.57
7930;BME280;4010;42.698;23.124;2022-07-10T08:09:38;118349.16;;;-140.64;81.90
7930;BME280;4010;42.698;23.124;2022-07-10T08:12:05;118349.16;;;-140.64;84.65
7930;BME280;4010;42.698;23.124;2022-07-10T08:14:32;118349.16;;;-140.64;78.41
7930;BME280;4010;42.698;23.124;2022-07-10T08:16:59;118349.16;;;-140.64;81.73
7930;BME280;4010;42.698;23.124;2022-07-10T08:19:25;118349.16;;;-140.64;77.48
7930;BME280;4010;42.698;23.124;2022-07-10T08:21:52;118349.16;;;-140.64;83.71
7930;BME280;4010;42.698;23.124;2022-07-10T08:24:20;118349.16;;;-140.64;78.90
7930;BME280;4010;42.698;23.124;2022-07-10T08:26:47;118349.16;;;-140.64;76.04
7930;BME280;4010;42.698;23.124;2022-07-10T08:29:14;118349.16;;;-140.64;77.42
7930;BME280;4010;42.698;23.124;2022-07-10T08:31:41;118349.16;;;-140.64;80.19
7930;BME280;4010;42.698;23.124;2022-07-10T08:34:08;118349.16;;;-140.64;84.68
7930;BME280;4010;42.698;23.124;2022-07-10T08:36:34;118349.16;;;-140.64;82.39
7930;BME280;4010;42.698;23.124;2022-07-10T08:39:01;118349.16;;;-140.64;77.13
7930;BME280;4010;42.698;23.124;2022-07-10T08:41:31;118349.16;;;-140.64;74.08
7930;BME280;4010;42.698;23.124;2022-07-10T08:43:59;118349.16;;;-140.64;76.31
7930;BME280;4010;42.698;23.124;2022-07-10T08:46:27;118349.16;;;-140.64;78.19
7930;BME280;4010;42.698;23.124;2022-07-10T08:48:55;118349.16;;;-140.64;70.28
7930;BME280;4010;42.698;23.124;2022-07-10T08:51:34;118349.16;;;-140.64;72.79
7930;BME280;4010;42.698;23.124;2022-07-10T08:54:04;118349.16;;;-140.64;80.42
7930;BME280;4010;42.698;23.124;2022-07-10T08:56:33;118349.16;;;-140.64;77.76
7930;BME280;4010;42.698;23.124;2022-07-10T08:59:02;118349.16;;;-140.64;76.31
7930;BME280;4010;42.698;23.124;2022-07-10T09:01:29;118349.16;;;-140.64;82.69
7930;BME280;4010;42.698;23.124;2022-07-10T09:03:56;118349.16;;;-140.64;86.28
7930;BME280;4010;42.698;23.124;2022-07-10T09:06:23;118349.16;;;-140.64;71.10
7930;BME280;4010;42.698;23.124;2022-07-10T09:09:01;118349.16;;;-140.64;77.41
7930;BME280;4010;42.698;23.124;2022-07-10T09:11:28;118349.16;;;-140.64;76.32
7930;BME280;4010;42.698;23.124;2022-07-10T09:13:58;118349.16;;;-140.64;67.09
7930;BME280;4010;42.698;23.124;2022-07-10T09:16:26;118349.16;;;-140.64;71.40
7930;BME280;4010;42.698;23.124;2022-07-10T09:18:54;118349.16;;;-140.64;73.30
7930;BME280;4010;42.698;23.124;2022-07-10T09:21:21;118349.16;;;-140.64;83.93
7930;BME280;4010;42.698;23.124;2022-07-10T09:23:49;118349.16;;;-140.64;80.52
7930;BME280;4010;42.698;23.124;2022-07-10T09:26:15;118349.16;;;-140.64;74.69
7930;BME280;4010;42.698;23.124;2022-07-10T09:28:43;118349.16;;;-140.64;74.30
7930;BME280;4010;42.698;23.124;2022-07-10T09:31:11;118349.16;;;-140.64;68.98
7930;BME280;4010;42.698;23.124;2022-07-10T09:33:40;118349.16;;;-140.64;71.93
7930;BME280;4010;42.698;23.124;2022-07-10T09:36:08;118349.16;;;-140.64;68.17
7930;BME280;4010;42.698;23.124;2022-07-10T09:38:54;118349.16;;;-140.64;70.06
7930;BME280;4010;42.698;23.124;2022-07-10T09:41:24;118349.16;;;-140.64;79.92
7930;BME280;4010;42.698;23.124;2022-07-10T09:43:52;118349.16;;;-140.64;84.00
7930;BME280;4010;42.698;23.124;2022-07-10T09:46:24;118349.16;;;-140.64;73.36
7930;BME280;4010;42.698;23.124;2022-07-10T09:49:01;118349.16;;;-140.64;74.14
7930;BME280;4010;42.698;23.124;2022-07-10T09:51:30;118349.16;;;-140.64;69.89
7930;BME280;4010;42.698;23.124;2022-07-10T09:54:00;118349.16;;;-140.64;78.18
7930;BME280;4010;42.698;23.124;2022-07-10T09:56:27;118349.16;;;-140.64;70.50
7930;BME280;4010;42.698;23.124;2022-07-10T09:58:59;118349.16;;;-140.64;76.01
7930;BME280;4010;42.698;23.124;2022-07-10T10:01:28;118349.16;;;-140.64;79.13
7930;BME280;4010;42.698;23.124;2022-07-10T10:03:58;118349.16;;;-140.64;77.83
7930;BME280;4010;42.698;23.124;2022-07-10T10:06:29;118349.16;;;-140.64;81.12
7930;BME280;4010;42.698;23.124;2022-07-10T10:09:00;118349.16;;;-140.64;74.67
7930;BME280;4010;42.698;23.124;2022-07-10T10:11:32;118349.16;;;-140.64;82.19
7930;BME280;4010;42.698;23.124;2022-07-10T10:14:00;118349.16;;;-140.64;71.57
7930;BME280;4010;42.698;23.124;2022-07-10T10:16:30;118349.16;;;-140.64;72.98
7930;BME280;4010;42.698;23.124;2022-07-10T10:18:58;118349.16;;;-140.64;73.61
7930;BME280;4010;42.698;23.124;2022-07-10T10:21:43;118349.16;;;-140.64;76.96
7930;BME280;4010;42.698;23.124;2022-07-10T10:24:11;118349.16;;;-140.64;73.03
7930;BME280;4010;42.698;23.124;2022-07-10T10:26:38;118349.16;;;-140.64;68.20
7930;BME280;4010;42.698;23.124;2022-07-10T10:29:06;118349.16;;;-140.64;68.25
7930;BME280;4010;42.698;23.124;2022-07-10T10:31:34;118349.16;;;-140.64;68.52
7930;BME280;4010;42.698;23.124;2022-07-10T10:34:01;118349.16;;;-140.64;68.72
7930;BME280;4010;42.698;23.124;2022-07-10T10:36:44;118349.16;;;-140.64;69.06
7930;BME280;4010;42.698;23.124;2022-07-10T10:39:12;118349.16;;;-140.64;68.81
7930;BME280;4010;42.698;23.124;2022-07-10T10:41:41;118349.16;;;-140.64;68.93
7930;BME280;4010;42.698;23.124;2022-07-10T10:44:28;118349.16;;;-140.64;70.49
7930;BME280;4010;42.698;23.124;2022-07-10T10:47:06;118349.16;;;-140.64;69.10
7930;BME280;4010;42.698;23.124;2022-07-10T10:49:55;118349.16;;;-140.64;74.22
7930;BME280;4010;42.698;23.124;2022-07-10T10:52:27;118349.16;;;-140.64;74.02
7930;BME280;4010;42.698;23.124;2022-07-10T10:55:04;118349.16;;;-140.64;78.25
7930;BME280;4010;42.698;23.124;2022-07-10T10:57:36;118349.16;;;-140.64;74.31
7930;BME280;4010;42.698;23.124;2022-07-10T11:00:06;118349.16;;;-140.64;73.03
7930;BME280;4010;42.698;23.124;2022-07-10T11:02:36;118349.16;;;-140.64;75.82
7930;BME280;4010;42.698;23.124;2022-07-10T11:08:07;118349.16;;;-140.64;72.46
7930;BME280;4010;42.698;23.124;2022-07-10T11:10:35;118349.16;;;-140.64;74.53
7930;BME280;4010;42.698;23.124;2022-07-10T11:13:03;118349.16;;;-140.64;72.12
7930;BME280;4010;42.698;23.124;2022-07-10T11:15:31;118349.16;;;-140.64;76.78
7930;BME280;4010;42.698;23.124;2022-07-10T11:18:03;118349.16;;;-140.64;80.09
7930;BME280;4010;42.698;23.124;2022-07-10T11:20:32;118349.16;;;-140.64;80.17
7930;BME280;4010;42.698;23.124;2022-07-10T11:26:02;118349.16;;;-140.64;75.17
7930;BME280;4010;42.698;23.124;2022-07-10T11:28:41;118349.16;;;-140.64;74.29
7930;BME280;4010;42.698;23.124;2022-07-10T11:31:13;118349.16;;;-140.64;68.96
7930;BME280;4010;42.698;23.124;2022-07-10T11:33:42;118349.16;;;-140.64;69.29
7930;BME280;4010;42.698;23.124;2022-07-10T11:36:12;118349.16;;;-140.64;73.33
7930;BME280;4010;42.698;23.124;2022-07-10T11:38:40;118349.16;;;-140.64;68.93
7930;BME280;4010;42.698;23.124;2022-07-10T11:41:17;118349.16;;;-140.64;65.36
7930;BME280;4010;42.698;23.124;2022-07-10T11:43:49;118349.16;;;-140.64;71.22
7930;BME280;4010;42.698;23.124;2022-07-10T11:46:16;118349.16;;;-140.64;65.24
7930;BME280;4010;42.698;23.124;2022-07-10T11:48:44;118349.16;;;-140.64;64.01
7930;BME280;4010;42.698;23.124;2022-07-10T11:51:20;118349.16;;;-140.64;61.89
7930;BME280;4010;42.698;23.124;2022-07-10T11:53:59;118349.16;;;-140.64;65.41
7930;BME280;4010;42.698;23.124;2022-07-10T11:56:27;118349.16;;;-140.64;66.23
7930;BME280;4010;42.698;23.124;2022-07-10T11:58:55;118349.16;;;-140.64;69.41
7930;BME280;4010;42.698;23.124;2022-07-10T12:01:22;118349.16;;;-140.64;63.63
7930;BME280;4010;42.698;23.124;2022-07-10T12:03:58;118349.16;;;-140.64;67.33
7930;BME280;4010;42.698;23.124;2022-07-10T12:06:25;118349.16;;;-140.64;65.51
7930;BME280;4010;42.698;23.124;2022-07-10T12:08:53;118349.16;;;-140.64;63.92
7930;BME280;4010;42.698;23.124;2022-07-10T12:11:20;118349.16;;;-140.64;64.02
7930;BME280;4010;42.698;23.124;2022-07-10T12:13:49;118349.16;;;-140.64;64.90
7930;BME280;4010;42.698;23.124;2022-07-10T12:16:16;118349.16;;;-140.64;61.95
7930;BME280;4010;42.698;23.124;2022-07-10T12:18:44;118349.16;;;-140.64;67.83
7930;BME280;4010;42.698;23.124;2022-07-10T12:21:14;118349.16;;;-140.64;60.84
7930;BME280;4010;42.698;23.124;2022-07-10T12:23:44;118349.16;;;-140.64;62.00
7930;BME280;4010;42.698;23.124;2022-07-10T12:26:12;118349.16;;;-140.64;59.69
7930;BME280;4010;42.698;23.124;2022-07-10T12:28:53;118349.16;;;-140.64;60.37
7930;BME280;4010;42.698;23.124;2022-07-10T12:31:25;118349.16;;;-140.64;59.32
7930;BME280;4010;42.698;23.124;2022-07-10T12:33:56;118349.16;;;-140.64;54.31
7930;BME280;4010;42.698;23.124;2022-07-10T12:36:41;118349.16;;;-140.64;55.70
7930;BME280;4010;42.698;23.124;2022-07-10T12:39:09;118349.16;;;-140.64;55.35
7930;BME280;4010;42.698;23.124;2022-07-10T12:41:57;118349.16;;;-140.64;51.76
7930;BME280;4010;42.698;23.124;2022-07-10T12:44:36;118349.16;;;-140.64;53.71
7930;BME280;4010;42.698;23.124;2022-07-10T12:47:04;118349.16;;;-140.64;54.12
7930;BME280;4010;42.698;23.124;2022-07-10T12:49:51;118349.16;;;-140.64;54.56